createdAt,value
2022-11-23T00:00:50.912Z,12.98
2022-11-23T00:03:59.185Z,10.45
2022-11-23T00:07:01.628Z,8.40
2022-11-23T00:10:04.703Z,6.45
2022-11-23T00:13:07.182Z,8.02
2022-11-23T00:16:13.915Z,9.07
2022-11-23T00:19:16.597Z,6.70
2022-11-23T00:22:19.270Z,5.75
2022-11-23T00:25:21.658Z,10.30
2022-11-23T00:28:24.965Z,6.57
2022-11-23T00:31:27.506Z,4.47
2022-11-23T00:34:30.186Z,5.70
2022-11-23T00:37:32.554Z,8.80
2022-11-23T00:40:35.316Z,6.20
2022-11-23T00:43:38.828Z,7.68
2022-11-23T00:46:41.790Z,6.07
2022-11-23T00:49:44.278Z,8.23
2022-11-23T00:52:47.018Z,7.65
2022-11-23T00:55:53.274Z,7.87
2022-11-23T00:58:58.082Z,7.90
2022-11-23T01:02:00.601Z,6.62
2022-11-23T01:05:05.060Z,12.20
2022-11-23T01:08:07.903Z,7.70
2022-11-23T01:11:13.248Z,16.35
2022-11-23T01:14:15.718Z,10.00
2022-11-23T01:17:18.443Z,7.37
2022-11-23T01:20:21.178Z,4.53
2022-11-23T01:23:23.855Z,6.55
2022-11-23T01:26:26.729Z,6.12
2022-11-23T01:29:33.092Z,4.55
2022-11-23T01:32:36.240Z,8.05
2022-11-23T01:35:39.283Z,10.05
2022-11-23T01:38:42.614Z,7.12
2022-11-23T01:41:46.824Z,6.07
2022-11-23T01:44:51.852Z,5.72
2022-11-23T01:47:54.796Z,7.05
2022-11-23T01:51:00.520Z,5.43
2022-11-23T01:54:11.822Z,4.20
2022-11-23T01:57:21.077Z,3.87
2022-11-23T02:00:24.365Z,5.80
2022-11-23T02:03:29.875Z,6.85
2022-11-23T02:06:33.854Z,7.87
2022-11-23T02:09:39.050Z,5.43
2022-11-23T02:12:41.540Z,7.00
2022-11-23T02:15:46.972Z,5.28
2022-11-23T02:18:52.306Z,9.48
2022-11-23T02:21:56.272Z,4.43
2022-11-23T02:25:01.911Z,6.75
2022-11-23T02:28:07.228Z,7.05
2022-11-23T02:34:30.522Z,4.68
2022-11-23T02:37:33.054Z,4.85
2022-11-23T02:40:36.837Z,5.82
2022-11-23T02:43:39.372Z,5.97
2022-11-23T02:46:42.194Z,4.07
2022-11-23T02:49:49.368Z,4.35
2022-11-23T02:52:52.602Z,5.22
2022-11-23T02:55:55.068Z,9.20
2022-11-23T02:59:00.163Z,5.28
2022-11-23T03:02:05.100Z,5.12
2022-11-23T03:05:08.356Z,8.07
2022-11-23T03:08:10.795Z,5.50
2022-11-23T03:11:14.378Z,3.60
2022-11-23T03:14:16.888Z,3.28
2022-11-23T03:17:21.901Z,7.28
2022-11-23T03:20:25.411Z,5.40
2022-11-23T03:23:28.887Z,4.62
2022-11-23T03:26:31.523Z,3.55
2022-11-23T03:29:35.700Z,5.40
2022-11-23T03:32:39.571Z,5.00
2022-11-23T03:35:43.381Z,6.80
2022-11-23T03:38:46.780Z,5.10
2022-11-23T03:41:58.395Z,8.52
2022-11-23T03:45:02.469Z,5.32
2022-11-23T03:48:06.242Z,5.07
2022-11-23T03:51:08.791Z,7.72
2022-11-23T03:54:11.854Z,6.28
2022-11-23T03:57:14.479Z,7.12
2022-11-23T04:00:17.650Z,5.15
2022-11-23T04:03:21.021Z,6.60
2022-11-23T04:06:26.315Z,3.65
2022-11-23T04:09:30.359Z,4.75
2022-11-23T04:12:34.843Z,6.62
2022-11-23T04:15:37.858Z,3.60
2022-11-23T04:18:40.837Z,6.97
2022-11-23T04:21:43.692Z,3.65
2022-11-23T04:24:46.159Z,6.22
2022-11-23T04:27:48.857Z,4.05
2022-11-23T04:30:51.696Z,3.10
2022-11-23T04:33:56.951Z,3.58
2022-11-23T04:36:59.677Z,2.80
2022-11-23T04:40:03.099Z,4.37
2022-11-23T04:43:09.637Z,3.60
2022-11-23T04:46:13.220Z,2.90
2022-11-23T04:49:16.638Z,4.35
2022-11-23T04:52:19.928Z,5.15
2022-11-23T04:55:22.542Z,14.82
2022-11-23T04:58:27.897Z,4.25
2022-11-23T05:01:33.378Z,3.20
2022-11-23T05:07:44.039Z,3.05
2022-11-23T05:10:46.930Z,3.47
2022-11-23T05:13:49.521Z,4.93
2022-11-23T05:16:52.336Z,3.40
2022-11-23T05:19:56.294Z,9.63
2022-11-23T05:22:59.672Z,3.45
2022-11-23T05:26:02.155Z,4.90
2022-11-23T05:29:06.221Z,6.65
2022-11-23T05:32:08.920Z,7.18
2022-11-23T05:35:12.090Z,2.87
2022-11-23T05:38:14.760Z,4.32
2022-11-23T05:41:18.934Z,3.75
2022-11-23T05:44:21.730Z,2.67
2022-11-23T05:47:24.817Z,2.95
2022-11-23T05:50:28.122Z,4.70
2022-11-23T05:53:45.405Z,4.60
2022-11-23T05:56:48.717Z,2.40
2022-11-23T05:59:52.999Z,4.85
2022-11-23T06:03:01.262Z,3.20
2022-11-23T06:06:06.400Z,3.70
2022-11-23T06:09:09.361Z,3.60
2022-11-23T06:12:12.468Z,5.72
2022-11-23T06:15:15.781Z,4.18
2022-11-23T06:18:20.294Z,5.90
2022-11-23T06:21:23.296Z,4.68
2022-11-23T06:24:26.724Z,4.68
2022-11-23T06:27:31.879Z,1.70
2022-11-23T06:30:35.608Z,2.17
2022-11-23T06:33:39.208Z,5.35
2022-11-23T06:36:43.280Z,5.87
2022-11-23T06:39:45.748Z,6.15
2022-11-23T06:42:48.567Z,3.25
2022-11-23T06:45:51.399Z,7.22
2022-11-23T06:48:54.186Z,4.45
2022-11-23T06:51:56.869Z,3.37
2022-11-23T06:54:59.799Z,4.97
2022-11-23T06:58:02.287Z,3.53
2022-11-23T07:01:07.704Z,4.05
2022-11-23T07:04:11.393Z,2.42
2022-11-23T07:07:14.449Z,4.50
2022-11-23T07:10:19.591Z,3.92
2022-11-23T07:13:22.566Z,2.67
2022-11-23T07:16:25.216Z,4.15
2022-11-23T07:19:28.121Z,3.50
2022-11-23T07:22:31.736Z,4.40
2022-11-23T07:25:36.549Z,3.75
2022-11-23T07:28:39.088Z,3.30
2022-11-23T07:31:41.852Z,5.43
2022-11-23T07:34:44.564Z,5.12
2022-11-23T07:37:48.676Z,3.72
2022-11-23T07:40:51.511Z,3.53
2022-11-23T07:43:55.351Z,4.32
2022-11-23T07:46:57.911Z,2.92
2022-11-23T07:50:00.852Z,3.60
2022-11-23T07:53:04.732Z,4.00
2022-11-23T07:56:07.777Z,4.35
2022-11-23T07:59:10.173Z,5.22
2022-11-23T08:02:14.915Z,3.87
2022-11-23T08:05:20.002Z,2.62
2022-11-23T08:08:22.914Z,2.72
2022-11-23T08:11:25.628Z,3.72
2022-11-23T08:14:28.072Z,3.72
2022-11-23T08:17:30.754Z,3.45
2022-11-23T08:20:34.783Z,4.70
2022-11-23T08:23:37.521Z,3.22
2022-11-23T08:26:39.915Z,4.05
2022-11-23T08:29:42.610Z,2.75
2022-11-23T08:32:45.066Z,3.60
2022-11-23T08:35:47.780Z,5.45
2022-11-23T08:38:54.297Z,3.47
2022-11-23T08:41:56.926Z,2.95
2022-11-23T08:45:00.200Z,5.57
2022-11-23T08:48:03.986Z,2.12
2022-11-23T08:51:07.032Z,3.85
2022-11-23T08:54:09.751Z,4.50
2022-11-23T08:57:12.212Z,3.67
2022-11-23T09:00:16.651Z,1.73
2022-11-23T09:03:19.403Z,2.15
2022-11-23T09:06:28.907Z,3.00
2022-11-23T09:09:31.459Z,3.03
2022-11-23T09:12:34.154Z,2.08
2022-11-23T09:15:36.655Z,3.62
2022-11-23T09:18:39.344Z,4.03
2022-11-23T09:21:43.058Z,4.87
2022-11-23T09:24:46.541Z,2.03
2022-11-23T09:27:49.534Z,2.85
2022-11-23T09:30:53.206Z,1.70
2022-11-23T09:33:55.651Z,3.17
2022-11-23T09:36:58.386Z,5.15
2022-11-23T09:40:01.060Z,3.17
2022-11-23T09:43:16.275Z,2.47
2022-11-23T09:46:18.589Z,2.37
2022-11-23T09:49:25.909Z,1.75
2022-11-23T09:52:30.571Z,2.03
2022-11-23T09:55:43.600Z,2.95
2022-11-23T09:58:46.597Z,2.62
2022-11-23T10:01:50.022Z,2.42
2022-11-23T10:04:53.782Z,3.17
2022-11-23T10:08:08.921Z,2.60
2022-11-23T10:11:35.355Z,2.28
2022-11-23T10:14:56.464Z,2.22
2022-11-23T10:18:18.136Z,4.82
2022-11-23T10:21:26.676Z,2.33
2022-11-23T10:24:38.319Z,1.70
2022-11-23T10:27:41.005Z,1.45
2022-11-23T10:30:50.433Z,2.33
2022-11-23T10:34:02.765Z,1.90
2022-11-23T10:37:12.197Z,2.17
2022-11-23T10:40:19.087Z,2.00
2022-11-23T10:43:26.120Z,2.70
2022-11-23T10:46:39.226Z,6.40
2022-11-23T10:49:58.472Z,2.67
2022-11-23T10:53:19.157Z,1.87
2022-11-23T10:56:22.679Z,2.53
2022-11-23T10:59:38.313Z,3.28
2022-11-23T11:02:43.271Z,2.50
2022-11-23T11:09:21.197Z,1.63
2022-11-23T11:12:24.021Z,2.65
2022-11-23T11:15:26.976Z,2.20
2022-11-23T11:18:35.048Z,2.20
2022-11-23T11:21:42.185Z,1.58
2022-11-23T11:24:45.859Z,3.33
2022-11-23T11:27:52.300Z,2.08
2022-11-23T11:31:13.391Z,2.45
2022-11-23T11:34:25.005Z,1.90
2022-11-23T11:37:27.440Z,4.18
2022-11-23T11:40:34.727Z,1.70
2022-11-23T11:43:49.150Z,3.03
2022-11-23T11:47:01.695Z,3.58
2022-11-23T11:50:19.373Z,7.80
2022-11-23T11:53:33.229Z,2.17
2022-11-23T11:56:46.426Z,2.12
2022-11-23T11:59:54.919Z,2.50
2022-11-23T12:03:03.753Z,1.58
2022-11-23T12:06:30.054Z,4.45
2022-11-23T12:09:38.587Z,2.17
2022-11-23T12:12:41.473Z,3.05
2022-11-23T12:15:54.560Z,4.40
2022-11-23T12:19:28.270Z,2.80
2022-11-23T12:22:42.737Z,3.50
2022-11-23T12:25:58.315Z,2.22
2022-11-23T12:29:07.564Z,2.55
2022-11-23T12:32:31.329Z,8.05
2022-11-23T12:35:52.204Z,5.87
2022-11-23T12:39:13.687Z,1.87
2022-11-23T12:42:30.839Z,1.87
2022-11-23T12:45:55.900Z,2.45
2022-11-23T12:49:22.407Z,2.55
2022-11-23T12:52:47.072Z,3.55
2022-11-23T12:55:58.046Z,1.77
2022-11-23T12:59:00.987Z,3.87
2022-11-23T13:02:13.758Z,1.75
2022-11-23T13:05:47.636Z,2.90
2022-11-23T13:09:21.150Z,4.57
2022-11-23T13:12:39.510Z,2.62
2022-11-23T13:16:00.498Z,7.80
2022-11-23T13:19:12.351Z,1.67
2022-11-23T13:22:19.597Z,2.37
2022-11-23T13:25:23.879Z,3.53
2022-11-23T13:28:30.143Z,2.60
2022-11-23T13:31:35.850Z,3.22
2022-11-23T13:34:46.725Z,2.25
2022-11-23T13:38:00.273Z,3.53
2022-11-23T13:41:02.926Z,1.73
2022-11-23T13:44:11.586Z,2.67
2022-11-23T13:47:16.038Z,2.97
2022-11-23T13:50:19.535Z,6.72
2022-11-23T13:53:32.863Z,2.22
2022-11-23T13:56:41.111Z,1.95
2022-11-23T13:59:43.816Z,2.60
2022-11-23T14:02:46.805Z,2.05
2022-11-23T14:05:49.592Z,2.85
2022-11-23T14:09:04.872Z,2.60
2022-11-23T14:12:29.533Z,4.07
2022-11-23T14:15:38.801Z,2.60
2022-11-23T14:19:06.973Z,1.85
2022-11-23T14:22:39.624Z,12.43
2022-11-23T14:25:57.709Z,2.15
2022-11-23T14:29:21.474Z,2.83
2022-11-23T14:32:52.537Z,4.15
2022-11-23T14:36:20.105Z,2.33
2022-11-23T14:40:03.011Z,2.80
2022-11-23T14:43:14.059Z,2.25
2022-11-23T14:46:24.820Z,3.37
2022-11-23T14:49:28.128Z,4.18
2022-11-23T14:52:36.387Z,2.28
2022-11-23T14:55:39.240Z,3.60
2022-11-23T14:58:42.242Z,2.50
2022-11-23T15:01:52.229Z,4.55
2022-11-23T15:05:05.057Z,2.55
2022-11-23T15:08:22.008Z,3.45
2022-11-23T15:11:28.874Z,3.35
2022-11-23T15:14:31.671Z,2.67
2022-11-23T15:17:35.591Z,5.35
2022-11-23T15:20:45.587Z,3.42
2022-11-23T15:23:54.114Z,5.30
2022-11-23T15:27:10.873Z,3.65
2022-11-23T15:30:20.950Z,3.75
2022-11-23T15:33:25.916Z,4.90
2022-11-23T15:36:33.948Z,2.75
2022-11-23T15:39:37.823Z,3.22
2022-11-23T15:42:42.584Z,4.60
2022-11-23T15:45:45.044Z,3.17
2022-11-23T15:48:50.317Z,4.12
2022-11-23T15:52:00.104Z,2.62
2022-11-23T15:55:10.143Z,3.10
2022-11-23T15:58:18.583Z,3.53
2022-11-23T16:01:22.224Z,2.65
2022-11-23T16:04:33.014Z,8.57
2022-11-23T16:07:52.666Z,4.10
2022-11-23T16:10:58.479Z,3.65
2022-11-23T16:14:31.743Z,5.87
2022-11-23T16:17:34.948Z,4.62
2022-11-23T16:20:43.736Z,5.62
2022-11-23T16:23:51.313Z,7.62
2022-11-23T16:26:54.406Z,9.82
2022-11-23T16:30:03.138Z,7.55
2022-11-23T16:36:09.283Z,4.97
2022-11-23T16:39:11.914Z,7.70
2022-11-23T16:42:16.104Z,8.18
2022-11-23T16:45:18.521Z,9.75
2022-11-23T16:48:25.171Z,7.95
2022-11-23T16:51:28.208Z,7.28
2022-11-23T16:54:30.983Z,5.68
2022-11-23T16:57:34.833Z,5.60
2022-11-23T17:00:37.659Z,5.60
2022-11-23T17:03:41.321Z,7.87
2022-11-23T17:06:44.195Z,6.28
2022-11-23T17:09:47.343Z,4.80
2022-11-23T17:12:52.330Z,6.70
2022-11-23T17:15:55.272Z,5.70
2022-11-23T17:18:58.070Z,7.80
2022-11-23T17:22:00.509Z,14.57
2022-11-23T17:25:03.307Z,9.90
2022-11-23T17:28:11.791Z,12.27
2022-11-23T17:31:14.613Z,8.52
2022-11-23T17:34:18.053Z,11.55
2022-11-23T17:37:23.827Z,13.13
2022-11-23T17:40:27.304Z,11.63
2022-11-23T17:43:29.961Z,12.57
2022-11-23T17:46:33.632Z,14.35
2022-11-23T17:49:36.533Z,11.35
2022-11-23T17:52:42.176Z,12.35
2022-11-23T17:55:45.077Z,12.13
2022-11-23T17:58:48.049Z,8.75
2022-11-23T18:01:50.776Z,8.90
2022-11-23T18:04:53.515Z,6.78
2022-11-23T18:07:56.421Z,6.62
2022-11-23T18:10:59.579Z,9.15
2022-11-23T18:14:03.292Z,7.50
2022-11-23T18:17:06.092Z,9.50
2022-11-23T18:20:10.206Z,8.25
2022-11-23T18:23:13.007Z,6.90
2022-11-23T18:26:15.432Z,9.32
2022-11-23T18:29:18.314Z,5.72
2022-11-23T18:32:20.764Z,7.37
2022-11-23T18:35:23.452Z,11.77
2022-11-23T18:38:26.112Z,8.48
2022-11-23T18:41:29.229Z,5.90
2022-11-23T18:44:31.789Z,8.50
2022-11-23T18:47:34.836Z,7.95
2022-11-23T18:50:41.518Z,9.90
2022-11-23T18:53:47.442Z,10.20
2022-11-23T18:56:49.963Z,5.35
2022-11-23T18:59:59.688Z,7.87
2022-11-23T19:03:02.598Z,10.57
2022-11-23T19:06:06.227Z,7.35
2022-11-23T19:09:08.841Z,6.30
2022-11-23T19:12:12.689Z,7.78
2022-11-23T19:15:15.369Z,6.62
2022-11-23T19:18:18.206Z,7.72
2022-11-23T19:21:24.155Z,8.15
2022-11-23T19:24:27.067Z,6.68
2022-11-23T19:27:29.708Z,5.47
2022-11-23T19:30:32.553Z,8.90
2022-11-23T19:33:34.971Z,8.07
2022-11-23T19:36:37.943Z,5.47
2022-11-23T19:39:40.425Z,8.43
2022-11-23T19:42:43.217Z,7.28
2022-11-23T19:45:53.564Z,7.47
2022-11-23T19:48:57.495Z,5.55
2022-11-23T19:52:00.315Z,4.95
2022-11-23T19:55:03.222Z,5.80
2022-11-23T19:58:05.690Z,6.35
2022-11-23T20:01:14.829Z,6.15
2022-11-23T20:04:17.761Z,5.87
2022-11-23T20:07:20.402Z,5.80
2022-11-23T20:10:24.801Z,4.32
2022-11-23T20:13:27.279Z,4.12
2022-11-23T20:16:31.929Z,4.47
2022-11-23T20:19:34.664Z,7.20
2022-11-23T20:22:37.670Z,16.15
2022-11-23T20:25:41.246Z,5.35
2022-11-23T20:28:44.194Z,6.28
2022-11-23T20:31:46.881Z,7.90
2022-11-23T20:34:51.306Z,6.45
2022-11-23T20:37:53.867Z,4.85
2022-11-23T20:40:57.096Z,9.38
2022-11-23T20:44:04.944Z,8.15
2022-11-23T20:47:07.792Z,5.62
2022-11-23T20:50:10.438Z,5.95
2022-11-23T20:53:13.116Z,3.85
2022-11-23T20:56:16.482Z,7.10
2022-11-23T20:59:20.253Z,5.68
2022-11-23T21:02:22.738Z,5.78
2022-11-23T21:05:25.482Z,5.90
2022-11-23T21:08:34.352Z,4.62
2022-11-23T21:11:56.888Z,5.75
2022-11-23T21:14:59.321Z,4.80
2022-11-23T21:18:02.034Z,5.05
2022-11-23T21:21:04.519Z,5.80
2022-11-23T21:24:08.602Z,7.80
2022-11-23T21:27:13.174Z,6.53
2022-11-23T21:30:16.166Z,6.30
2022-11-23T21:33:18.625Z,7.85
2022-11-23T21:36:22.391Z,11.48
2022-11-23T21:39:24.968Z,5.20
2022-11-23T21:42:28.140Z,8.05
2022-11-23T21:45:31.045Z,4.68
2022-11-23T21:48:35.257Z,5.85
2022-11-23T21:51:38.661Z,6.05
2022-11-23T21:54:47.291Z,7.78
2022-11-23T21:57:51.655Z,7.85
2022-11-23T22:00:54.405Z,10.20
2022-11-23T22:04:00.644Z,6.22
2022-11-23T22:07:03.258Z,7.72
2022-11-23T22:10:06.561Z,6.87
2022-11-23T22:13:08.973Z,7.60
2022-11-23T22:16:19.381Z,6.45
2022-11-23T22:19:22.323Z,5.72
2022-11-23T22:22:25.200Z,9.05
2022-11-23T22:25:27.624Z,10.25
2022-11-23T22:28:32.099Z,7.28
2022-11-23T22:31:35.211Z,6.93
2022-11-23T22:34:39.395Z,8.30
2022-11-23T22:37:41.764Z,5.25
2022-11-23T22:40:49.094Z,6.37
2022-11-23T22:43:53.021Z,5.43
2022-11-23T22:46:55.714Z,6.90
2022-11-23T22:49:58.160Z,6.47
2022-11-23T22:53:00.890Z,5.87
2022-11-23T22:56:05.080Z,7.07
2022-11-23T22:59:07.784Z,4.93
2022-11-23T23:02:10.479Z,6.90
2022-11-23T23:05:13.489Z,8.20
2022-11-23T23:08:15.869Z,5.85
2022-11-23T23:11:18.731Z,6.90
2022-11-23T23:14:21.150Z,6.40
2022-11-23T23:17:24.043Z,5.95
2022-11-23T23:20:28.105Z,7.12
2022-11-23T23:23:30.885Z,9.35
2022-11-23T23:26:33.392Z,6.53
2022-11-23T23:29:36.127Z,7.37
2022-11-23T23:32:39.304Z,7.57
2022-11-23T23:35:42.011Z,11.12
2022-11-23T23:38:44.632Z,15.13
2022-11-23T23:41:47.415Z,6.80
2022-11-23T23:44:49.776Z,10.75
2022-11-23T23:47:52.447Z,14.23
2022-11-23T23:50:55.759Z,12.95
2022-11-23T23:53:58.543Z,7.22
2022-11-23T23:57:00.991Z,8.07
